sensor_id;sensor_type;location;lat;lon;timestamp;pressure;altitude;pressure_sealevel;temperature;humidity
48796;BME280;34607;48.520;-1.330;2023-04-03T07:18:31;101314.31;;;4.99;87.55
48796;BME280;34607;48.520;-1.330;2023-04-03T07:20:58;101315.31;;;5.18;87.49
48796;BME280;34607;48.520;-1.330;2023-04-03T07:23:25;101325.13;;;5.25;86.92
48796;BME280;34607;48.520;-1.330;2023-04-03T07:25:53;101323.91;;;5.18;87.06
48796;BME280;34607;48.520;-1.330;2023-04-03T07:28:21;101303.66;;;5.08;86.38
48796;BME280;34607;48.520;-1.330;2023-04-03T07:30:50;101329.03;;;5.18;86.99
48796;BME280;34607;48.520;-1.330;2023-04-03T07:33:18;101312.75;;;5.18;86.46
48796;BME280;34607;48.520;-1.330;2023-04-03T07:35:47;101325.03;;;5.23;86.05
48796;BME280;34607;48.520;-1.330;2023-04-03T07:38:14;101324.16;;;5.23;86.17
48796;BME280;34607;48.520;-1.330;2023-04-03T07:40:46;101314.19;;;5.29;86.21
48796;BME280;34607;48.520;-1.330;2023-04-03T07:43:13;101313.09;;;5.40;85.79
48796;BME280;34607;48.520;-1.330;2023-04-03T07:45:41;101287.88;;;5.33;85.42
48796;BME280;34607;48.520;-1.330;2023-04-03T07:48:09;101314.38;;;5.49;85.11
48796;BME280;34607;48.520;-1.330;2023-04-03T07:50:36;101323.75;;;5.48;85.02
48796;BME280;34607;48.520;-1.330;2023-04-03T07:53:05;101310.38;;;5.54;84.36
48796;BME280;34607;48.520;-1.330;2023-04-03T07:55:33;101312.75;;;5.67;83.87
48796;BME280;34607;48.520;-1.330;2023-04-03T07:58:05;101314.34;;;5.65;83.16
48796;BME280;34607;48.520;-1.330;2023-04-03T08:00:33;101307.13;;;5.58;82.34
48796;BME280;34607;48.520;-1.330;2023-04-03T08:03:00;101318.16;;;5.55;82.26
48796;BME280;34607;48.520;-1.330;2023-04-03T08:05:27;101322.63;;;5.43;82.28
48796;BME280;34607;48.520;-1.330;2023-04-03T08:07:54;101325.09;;;5.41;82.19
48796;BME280;34607;48.520;-1.330;2023-04-03T08:10:22;101324.50;;;5.46;81.81
48796;BME280;34607;48.520;-1.330;2023-04-03T08:12:49;101326.25;;;5.30;81.44
48796;BME280;34607;48.520;-1.330;2023-04-03T08:15:17;101322.31;;;5.37;82.18
48796;BME280;34607;48.520;-1.330;2023-04-03T08:17:44;101312.44;;;5.61;81.92
48796;BME280;34607;48.520;-1.330;2023-04-03T08:20:11;101310.81;;;5.79;81.40
48796;BME280;34607;48.520;-1.330;2023-04-03T08:22:38;101306.56;;;5.96;81.11
48796;BME280;34607;48.520;-1.330;2023-04-03T08:25:06;101306.34;;;6.10;80.70
48796;BME280;34607;48.520;-1.330;2023-04-03T08:27:35;101309.31;;;6.17;79.65
48796;BME280;34607;48.520;-1.330;2023-04-03T08:30:03;101309.13;;;6.49;79.83
48796;BME280;34607;48.520;-1.330;2023-04-03T08:32:30;101313.53;;;6.87;78.69
48796;BME280;34607;48.520;-1.330;2023-04-03T08:34:57;101312.63;;;6.87;78.05
48796;BME280;34607;48.520;-1.330;2023-04-03T08:37:24;101310.69;;;7.38;78.57
48796;BME280;34607;48.520;-1.330;2023-04-03T08:39:52;101307.94;;;7.94;77.19
48796;BME280;34607;48.520;-1.330;2023-04-03T08:42:29;101295.44;;;8.24;75.62
48796;BME280;34607;48.520;-1.330;2023-04-03T08:45:07;101285.72;;;8.39;75.41
48796;BME280;34607;48.520;-1.330;2023-04-03T08:47:39;101301.66;;;8.94;75.34
48796;BME280;34607;48.520;-1.330;2023-04-03T08:50:11;101293.50;;;8.83;72.96
48796;BME280;34607;48.520;-1.330;2023-04-03T08:52:42;101303.63;;;8.56;73.28
48796;BME280;34607;48.520;-1.330;2023-04-03T08:55:20;101300.00;;;8.51;73.48
48796;BME280;34607;48.520;-1.330;2023-04-03T08:57:52;101284.91;;;8.61;73.91
48796;BME280;34607;48.520;-1.330;2023-04-03T09:00:25;101290.06;;;8.83;73.65
48796;BME280;34607;48.520;-1.330;2023-04-03T09:02:55;101279.13;;;8.90;72.85
48796;BME280;34607;48.520;-1.330;2023-04-03T09:05:32;101292.78;;;8.87;72.72
48796;BME280;34607;48.520;-1.330;2023-04-03T09:08:09;101283.25;;;9.55;74.15
48796;BME280;34607;48.520;-1.330;2023-04-03T09:10:39;101276.72;;;10.17;71.68
48796;BME280;34607;48.520;-1.330;2023-04-03T09:13:13;101281.66;;;10.10;70.32
48796;BME280;34607;48.520;-1.330;2023-04-03T09:15:46;101283.56;;;9.89;70.85
48796;BME280;34607;48.520;-1.330;2023-04-03T09:18:19;101247.91;;;9.54;70.50
48796;BME280;34607;48.520;-1.330;2023-04-03T09:20:55;101262.28;;;9.98;70.37
48796;BME280;34607;48.520;-1.330;2023-04-03T09:23:28;101275.28;;;10.52;69.68
48796;BME280;34607;48.520;-1.330;2023-04-03T09:26:02;101270.47;;;10.93;69.08
48796;BME280;34607;48.520;-1.330;2023-04-03T09:28:33;101283.75;;;10.75;68.88
48796;BME280;34607;48.520;-1.330;2023-04-03T09:31:17;101265.66;;;11.05;69.08
48796;BME280;34607;48.520;-1.330;2023-04-03T09:33:45;101269.66;;;11.56;68.14
48796;BME280;34607;48.520;-1.330;2023-04-03T09:36:13;101266.41;;;11.32;65.96
48796;BME280;34607;48.520;-1.330;2023-04-03T09:38:40;101265.81;;;11.12;66.91
48796;BME280;34607;48.520;-1.330;2023-04-03T09:41:15;101268.31;;;11.09;68.24
48796;BME280;34607;48.520;-1.330;2023-04-03T09:43:52;101247.28;;;11.28;66.87
48796;BME280;34607;48.520;-1.330;2023-04-03T09:46:29;101246.44;;;11.61;66.30
48796;BME280;34607;48.520;-1.330;2023-04-03T09:48:59;101257.91;;;12.03;65.50
48796;BME280;34607;48.520;-1.330;2023-04-03T09:51:27;101250.25;;;11.75;65.20
48796;BME280;34607;48.520;-1.330;2023-04-03T09:53:55;101247.72;;;11.43;64.77
48796;BME280;34607;48.520;-1.330;2023-04-03T09:56:24;101257.50;;;11.87;65.39
48796;BME280;34607;48.520;-1.330;2023-04-03T09:59:06;101248.03;;;12.61;64.93
48796;BME280;34607;48.520;-1.330;2023-04-03T10:01:37;101258.00;;;12.42;64.27
48796;BME280;34607;48.520;-1.330;2023-04-03T10:04:08;101251.34;;;12.53;64.61
48796;BME280;34607;48.520;-1.330;2023-04-03T10:06:37;101240.44;;;12.32;64.05
48796;BME280;34607;48.520;-1.330;2023-04-03T10:09:16;101250.34;;;12.10;64.19
48796;BME280;34607;48.520;-1.330;2023-04-03T10:11:58;101242.91;;;12.26;63.92
48796;BME280;34607;48.520;-1.330;2023-04-03T10:14:27;101243.94;;;12.70;64.09
48796;BME280;34607;48.520;-1.330;2023-04-03T10:17:02;101228.31;;;13.11;63.06
48796;BME280;34607;48.520;-1.330;2023-04-03T10:19:34;101233.44;;;13.08;62.77
48796;BME280;34607;48.520;-1.330;2023-04-03T10:22:13;101215.53;;;13.22;62.08
48796;BME280;34607;48.520;-1.330;2023-04-03T10:24:50;101219.72;;;13.16;62.79
48796;BME280;34607;48.520;-1.330;2023-04-03T10:27:25;101218.97;;;13.21;62.30
48796;BME280;34607;48.520;-1.330;2023-04-03T10:29:59;101223.41;;;13.27;63.00
48796;BME280;34607;48.520;-1.330;2023-04-03T10:32:45;101212.97;;;13.25;62.33
48796;BME280;34607;48.520;-1.330;2023-04-03T10:35:30;101212.78;;;13.60;62.05
48796;BME280;34607;48.520;-1.330;2023-04-03T10:38:06;101206.88;;;13.71;62.10
48796;BME280;34607;48.520;-1.330;2023-04-03T10:40:41;101196.84;;;13.92;62.61
48796;BME280;34607;48.520;-1.330;2023-04-03T10:43:18;101201.59;;;14.19;61.43
48796;BME280;34607;48.520;-1.330;2023-04-03T10:45:53;101205.59;;;13.97;60.75
48796;BME280;34607;48.520;-1.330;2023-04-03T10:48:32;101198.69;;;13.99;61.22
48796;BME280;34607;48.520;-1.330;2023-04-03T10:51:10;101199.53;;;13.97;61.31
48796;BME280;34607;48.520;-1.330;2023-04-03T10:53:44;101181.06;;;14.39;61.22
48796;BME280;34607;48.520;-1.330;2023-04-03T10:56:21;101183.69;;;14.42;60.75
48796;BME280;34607;48.520;-1.330;2023-04-03T10:58:56;101190.56;;;14.37;60.78
48796;BME280;34607;48.520;-1.330;2023-04-03T11:01:30;101179.41;;;14.48;60.00
48796;BME280;34607;48.520;-1.330;2023-04-03T11:04:02;101177.88;;;14.59;60.02
48796;BME280;34607;48.520;-1.330;2023-04-03T11:06:34;101176.47;;;14.87;60.04
48796;BME280;34607;48.520;-1.330;2023-04-03T11:09:07;101176.03;;;15.24;59.55
48796;BME280;34607;48.520;-1.330;2023-04-03T11:11:43;101168.31;;;15.34;59.32
48796;BME280;34607;48.520;-1.330;2023-04-03T11:14:14;101149.16;;;15.32;58.48
48796;BME280;34607;48.520;-1.330;2023-04-03T11:16:47;101166.56;;;15.32;58.22
48796;BME280;34607;48.520;-1.330;2023-04-03T11:19:18;101172.31;;;14.34;59.14
48796;BME280;34607;48.520;-1.330;2023-04-03T11:21:54;101163.66;;;14.38;60.46
48796;BME280;34607;48.520;-1.330;2023-04-03T11:24:27;101171.91;;;14.68;59.94
48796;BME280;34607;48.520;-1.330;2023-04-03T11:26:56;101163.66;;;15.06;59.37
48796;BME280;34607;48.520;-1.330;2023-04-03T11:29:29;101164.72;;;15.22;58.33
48796;BME280;34607;48.520;-1.330;2023-04-03T11:32:09;101173.69;;;14.73;59.10
48796;BME280;34607;48.520;-1.330;2023-04-03T11:34:42;101160.19;;;15.07;59.46
48796;BME280;34607;48.520;-1.330;2023-04-03T11:37:14;101155.50;;;15.64;58.52
48796;BME280;34607;48.520;-1.330;2023-04-03T11:39:54;101150.50;;;15.84;58.04
48796;BME280;34607;48.520;-1.330;2023-04-03T11:42:27;101145.16;;;15.73;57.60
48796;BME280;34607;48.520;-1.330;2023-04-03T11:45:22;101139.75;;;15.51;57.79
48796;BME280;34607;48.520;-1.330;2023-04-03T11:47:52;101147.50;;;15.44;57.81
48796;BME280;34607;48.520;-1.330;2023-04-03T11:50:41;101140.34;;;15.21;58.47
48796;BME280;34607;48.520;-1.330;2023-04-03T11:53:27;101141.63;;;15.69;58.69
48796;BME280;34607;48.520;-1.330;2023-04-03T11:56:02;101137.41;;;15.82;57.56
48796;BME280;34607;48.520;-1.330;2023-04-03T11:58:32;101142.34;;;15.48;58.03
48796;BME280;34607;48.520;-1.330;2023-04-03T12:01:04;101134.78;;;15.79;57.63
48796;BME280;34607;48.520;-1.330;2023-04-03T12:09:33;101123.75;;;15.16;56.97
48796;BME280;34607;48.520;-1.330;2023-04-03T12:12:23;101114.78;;;15.78;57.17
48796;BME280;34607;48.520;-1.330;2023-04-03T12:14:51;101113.41;;;16.46;57.36
48796;BME280;34607;48.520;-1.330;2023-04-03T12:17:22;101112.50;;;16.38;56.54
48796;BME280;34607;48.520;-1.330;2023-04-03T12:19:52;101116.84;;;16.36;56.96
48796;BME280;34607;48.520;-1.330;2023-04-03T12:22:20;101108.16;;;16.42;56.46
48796;BME280;34607;48.520;-1.330;2023-04-03T12:24:52;101105.41;;;16.13;56.34
48796;BME280;34607;48.520;-1.330;2023-04-03T12:27:27;101106.41;;;16.41;56.19
48796;BME280;34607;48.520;-1.330;2023-04-03T12:30:01;101101.16;;;16.38;56.56
48796;BME280;34607;48.520;-1.330;2023-04-03T12:33:04;101089.81;;;16.36;55.26
48796;BME280;34607;48.520;-1.330;2023-04-03T12:35:47;101089.75;;;16.20;56.35
48796;BME280;34607;48.520;-1.330;2023-04-03T12:38:30;101082.88;;;16.38;56.67
48796;BME280;34607;48.520;-1.330;2023-04-03T12:41:16;101074.28;;;16.70;56.57
48796;BME280;34607;48.520;-1.330;2023-04-03T12:43:53;101072.59;;;16.96;56.33
48796;BME280;34607;48.520;-1.330;2023-04-03T12:46:26;101077.81;;;16.87;56.42
48796;BME280;34607;48.520;-1.330;2023-04-03T12:48:57;101084.69;;;16.57;56.87
48796;BME280;34607;48.520;-1.330;2023-04-03T12:51:32;101083.81;;;16.54;56.19
48796;BME280;34607;48.520;-1.330;2023-04-03T12:54:04;101074.28;;;16.71;55.74
48796;BME280;34607;48.520;-1.330;2023-04-03T12:56:41;101068.16;;;16.71;56.08
48796;BME280;34607;48.520;-1.330;2023-04-03T12:59:15;101076.03;;;16.81;55.69
48796;BME280;34607;48.520;-1.330;2023-04-03T13:01:43;101068.06;;;16.37;56.53
48796;BME280;34607;48.520;-1.330;2023-04-03T13:04:11;101063.50;;;15.94;55.87
48796;BME280;34607;48.520;-1.330;2023-04-03T13:06:40;101067.50;;;15.50;57.36
48796;BME280;34607;48.520;-1.330;2023-04-03T13:09:19;101048.66;;;15.85;57.25
48796;BME280;34607;48.520;-1.330;2023-04-03T13:11:49;101054.97;;;16.31;56.53
48796;BME280;34607;48.520;-1.330;2023-04-03T13:14:18;101053.34;;;16.68;56.63
48796;BME280;34607;48.520;-1.330;2023-04-03T13:16:53;101041.25;;;17.10;57.51
48796;BME280;34607;48.520;-1.330;2023-04-03T13:19:22;101042.97;;;17.50;56.54
48796;BME280;34607;48.520;-1.330;2023-04-03T13:21:54;101041.22;;;17.13;56.23
48796;BME280;34607;48.520;-1.330;2023-04-03T13:24:23;101042.97;;;17.11;57.01
48796;BME280;34607;48.520;-1.330;2023-04-03T13:26:52;101039.50;;;17.15;56.41
48796;BME280;34607;48.520;-1.330;2023-04-03T13:29:24;101044.72;;;17.14;56.29
48796;BME280;34607;48.520;-1.330;2023-04-03T13:31:54;101033.34;;;17.59;55.49
48796;BME280;34607;48.520;-1.330;2023-04-03T13:34:23;101002.84;;;17.26;55.56
48796;BME280;34607;48.520;-1.330;2023-04-03T13:36:57;101030.75;;;17.35;56.40
48796;BME280;34607;48.520;-1.330;2023-04-03T13:39:27;101030.75;;;17.18;56.18
48796;BME280;34607;48.520;-1.330;2023-04-03T13:41:57;101031.56;;;16.75;56.26
48796;BME280;34607;48.520;-1.330;2023-04-03T13:44:31;101031.53;;;16.52;56.80
48796;BME280;34607;48.520;-1.330;2023-04-03T13:47:00;101032.50;;;16.87;56.73
48796;BME280;34607;48.520;-1.330;2023-04-03T13:49:31;101020.28;;;17.15;56.51
48796;BME280;34607;48.520;-1.330;2023-04-03T13:52:00;101022.03;;;17.31;56.74
48796;BME280;34607;48.520;-1.330;2023-04-03T13:54:32;101006.31;;;17.30;55.92
48796;BME280;34607;48.520;-1.330;2023-04-03T13:57:01;101015.03;;;17.32;56.44
48796;BME280;34607;48.520;-1.330;2023-04-03T13:59:31;101010.69;;;17.41;55.66
48796;BME280;34607;48.520;-1.330;2023-04-03T14:02:12;100994.06;;;17.59;55.43
48796;BME280;34607;48.520;-1.330;2023-04-03T14:04:48;100993.19;;;17.54;55.06
48796;BME280;34607;48.520;-1.330;2023-04-03T14:07:16;100988.88;;;17.39;55.51
48796;BME280;34607;48.520;-1.330;2023-04-03T14:09:45;100952.22;;;16.72;55.57
48796;BME280;34607;48.520;-1.330;2023-04-03T14:12:16;100998.47;;;16.96;55.88
48796;BME280;34607;48.520;-1.330;2023-04-03T14:14:45;100974.91;;;16.74;55.98
48796;BME280;34607;48.520;-1.330;2023-04-03T14:17:15;100993.25;;;17.10;55.90
48796;BME280;34607;48.520;-1.330;2023-04-03T14:19:43;100988.91;;;17.06;54.93
48796;BME280;34607;48.520;-1.330;2023-04-03T14:22:14;100987.06;;;16.49;55.30
48796;BME280;34607;48.520;-1.330;2023-04-03T14:24:42;100973.97;;;16.55;56.29
48796;BME280;34607;48.520;-1.330;2023-04-03T14:27:17;100981.88;;;16.83;56.04
48796;BME280;34607;48.520;-1.330;2023-04-03T14:29:45;100979.25;;;16.69;55.35
48796;BME280;34607;48.520;-1.330;2023-04-03T14:32:12;100977.47;;;16.62;55.20
48796;BME280;34607;48.520;-1.330;2023-04-03T14:34:41;100955.63;;;16.23;55.59
48796;BME280;34607;48.520;-1.330;2023-04-03T14:37:10;100987.00;;;16.23;55.88
48796;BME280;34607;48.520;-1.330;2023-04-03T14:39:37;100969.50;;;15.97;56.19
48796;BME280;34607;48.520;-1.330;2023-04-03T14:42:04;100977.31;;;16.02;57.10
48796;BME280;34607;48.520;-1.330;2023-04-03T14:44:32;100971.31;;;16.31;56.61
48796;BME280;34607;48.520;-1.330;2023-04-03T14:46:59;100954.72;;;16.13;56.31
48796;BME280;34607;48.520;-1.330;2023-04-03T14:49:27;100948.69;;;16.28;56.19
48796;BME280;34607;48.520;-1.330;2023-04-03T14:51:55;100960.81;;;16.12;56.45
48796;BME280;34607;48.520;-1.330;2023-04-03T14:54:23;100956.34;;;15.85;56.71
48796;BME280;34607;48.520;-1.330;2023-04-03T14:56:53;100954.56;;;15.76;57.03
48796;BME280;34607;48.520;-1.330;2023-04-03T14:59:21;100956.31;;;15.76;56.87
48796;BME280;34607;48.520;-1.330;2023-04-03T15:01:50;100948.53;;;15.89;56.95
48796;BME280;34607;48.520;-1.330;2023-04-03T15:04:19;100944.25;;;16.10;56.88
48796;BME280;34607;48.520;-1.330;2023-04-03T15:06:48;100942.47;;;15.92;55.88
48796;BME280;34607;48.520;-1.330;2023-04-03T15:09:20;100941.59;;;15.93;56.03
48796;BME280;34607;48.520;-1.330;2023-04-03T15:11:48;100913.75;;;15.98;56.38
48796;BME280;34607;48.520;-1.330;2023-04-03T15:14:15;100928.56;;;16.01;56.80
48796;BME280;34607;48.520;-1.330;2023-04-03T15:16:42;100936.34;;;15.84;56.58
48796;BME280;34607;48.520;-1.330;2023-04-03T15:19:11;100932.84;;;15.85;56.79
48796;BME280;34607;48.520;-1.330;2023-04-03T15:21:38;100924.03;;;15.61;56.64
48796;BME280;34607;48.520;-1.330;2023-04-03T15:24:06;100904.78;;;15.45;57.47
48796;BME280;34607;48.520;-1.330;2023-04-03T15:26:33;100920.66;;;15.81;57.35
48796;BME280;34607;48.520;-1.330;2023-04-03T15:29:00;100918.91;;;15.83;57.23
48796;BME280;34607;48.520;-1.330;2023-04-03T15:31:27;100924.03;;;15.63;57.31
48796;BME280;34607;48.520;-1.330;2023-04-03T15:33:55;100909.09;;;15.35;57.80
48796;BME280;34607;48.520;-1.330;2023-04-03T15:36:23;100929.09;;;15.32;58.04
48796;BME280;34607;48.520;-1.330;2023-04-03T15:38:50;100915.25;;;15.48;58.11
48796;BME280;34607;48.520;-1.330;2023-04-03T15:41:17;100918.72;;;15.49;58.02
48796;BME280;34607;48.520;-1.330;2023-04-03T15:43:44;100911.81;;;15.51;58.27
48796;BME280;34607;48.520;-1.330;2023-04-03T15:46:12;100905.47;;;15.10;58.35
48796;BME280;34607;48.520;-1.330;2023-04-03T15:48:40;100910.63;;;15.04;58.68
48796;BME280;34607;48.520;-1.330;2023-04-03T15:51:07;100911.31;;;14.80;58.94
48796;BME280;34607;48.520;-1.330;2023-04-03T15:53:35;100911.38;;;14.85;59.34
48796;BME280;34607;48.520;-1.330;2023-04-03T15:56:03;100906.97;;;14.77;59.18
48796;BME280;34607;48.520;-1.330;2023-04-03T15:58:30;100908.81;;;14.91;59.37
48796;BME280;34607;48.520;-1.330;2023-04-03T16:00:57;100915.66;;;14.78;59.30
48796;BME280;34607;48.520;-1.330;2023-04-03T16:03:24;100905.94;;;14.61;59.41
48796;BME280;34607;48.520;-1.330;2023-04-03T16:05:52;100913.78;;;14.63;59.24
48796;BME280;34607;48.520;-1.330;2023-04-03T16:08:19;100905.91;;;14.57;59.44
48796;BME280;34607;48.520;-1.330;2023-04-03T16:10:48;100918.91;;;14.55;59.53
48796;BME280;34607;48.520;-1.330;2023-04-03T16:13:15;100911.78;;;14.34;59.74
48796;BME280;34607;48.520;-1.330;2023-04-03T16:15:42;100911.63;;;14.22;60.02
48796;BME280;34607;48.520;-1.330;2023-04-03T16:18:09;100906.38;;;14.16;60.06
48796;BME280;34607;48.520;-1.330;2023-04-03T16:20:39;100899.56;;;14.32;60.36
48796;BME280;34607;48.520;-1.330;2023-04-03T16:23:06;100891.53;;;14.10;60.02
48796;BME280;34607;48.520;-1.330;2023-04-03T16:25:33;100890.81;;;14.23;60.69
48796;BME280;34607;48.520;-1.330;2023-04-03T16:28:01;100889.13;;;14.29;60.69
48796;BME280;34607;48.520;-1.330;2023-04-03T16:30:29;100905.56;;;14.23;60.68
48796;BME280;34607;48.520;-1.330;2023-04-03T16:32:56;100901.03;;;14.05;60.91
48796;BME280;34607;48.520;-1.330;2023-04-03T16:35:23;100891.47;;;14.04;61.16
48796;BME280;34607;48.520;-1.330;2023-04-03T16:37:50;100897.50;;;13.98;61.24
48796;BME280;34607;48.520;-1.330;2023-04-03T16:40:17;100892.19;;;13.91;61.06
48796;BME280;34607;48.520;-1.330;2023-04-03T16:42:44;100888.59;;;13.81;61.23
48796;BME280;34607;48.520;-1.330;2023-04-03T16:45:13;100882.19;;;13.51;61.72
48796;BME280;34607;48.520;-1.330;2023-04-03T16:47:41;100893.38;;;13.45;62.05
48796;BME280;34607;48.520;-1.330;2023-04-03T16:50:08;100897.75;;;13.48;62.25
48796;BME280;34607;48.520;-1.330;2023-04-03T16:52:35;100887.28;;;13.45;62.53
48796;BME280;34607;48.520;-1.330;2023-04-03T16:55:03;100882.88;;;13.38;62.48
48796;BME280;34607;48.520;-1.330;2023-04-03T16:57:30;100896.75;;;13.37;62.71
48796;BME280;34607;48.520;-1.330;2023-04-03T16:59:57;100901.09;;;13.39;63.03
48796;BME280;34607;48.520;-1.330;2023-04-03T17:02:26;100893.94;;;13.26;63.00
48796;BME280;34607;48.520;-1.330;2023-04-03T17:04:53;100889.53;;;13.20;63.25
48796;BME280;34607;48.520;-1.330;2023-04-03T17:07:22;100892.00;;;13.09;63.09
48796;BME280;34607;48.520;-1.330;2023-04-03T17:09:50;100890.19;;;13.05;63.25
48796;BME280;34607;48.520;-1.330;2023-04-03T17:12:19;100885.78;;;13.00;63.25
48796;BME280;34607;48.520;-1.330;2023-04-03T17:14:46;100891.84;;;13.00;63.42
48796;BME280;34607;48.520;-1.330;2023-04-03T17:17:14;100893.72;;;13.10;63.61
48796;BME280;34607;48.520;-1.330;2023-04-03T17:19:43;100887.50;;;12.99;63.41
48796;BME280;34607;48.520;-1.330;2023-04-03T17:22:10;100880.38;;;12.86;63.21
48796;BME280;34607;48.520;-1.330;2023-04-03T17:24:37;100896.00;;;12.89;63.69
48796;BME280;34607;48.520;-1.330;2023-04-03T17:27:04;100896.81;;;12.86;64.04
48796;BME280;34607;48.520;-1.330;2023-04-03T17:29:31;100902.84;;;12.82;64.05
48796;BME280;34607;48.520;-1.330;2023-04-03T17:31:58;100907.78;;;12.67;64.23
48796;BME280;34607;48.520;-1.330;2023-04-03T17:34:25;100902.47;;;12.61;64.70
48796;BME280;34607;48.520;-1.330;2023-04-03T17:36:54;100912.91;;;12.62;64.35
48796;BME280;34607;48.520;-1.330;2023-04-03T17:39:21;100908.28;;;12.44;64.48
48796;BME280;34607;48.520;-1.330;2023-04-03T17:41:48;100910.63;;;12.32;64.98
48796;BME280;34607;48.520;-1.330;2023-04-03T17:44:15;100897.63;;;12.32;65.05
48796;BME280;34607;48.520;-1.330;2023-04-03T17:46:42;100893.13;;;12.22;65.19
48796;BME280;34607;48.520;-1.330;2023-04-03T17:49:09;100908.69;;;12.22;65.67
48796;BME280;34607;48.520;-1.330;2023-04-03T17:51:40;100909.53;;;12.19;65.54
48796;BME280;34607;48.520;-1.330;2023-04-03T17:54:08;100885.81;;;12.01;65.82
48796;BME280;34607;48.520;-1.330;2023-04-03T17:56:35;100905.84;;;12.08;65.78
48796;BME280;34607;48.520;-1.330;2023-04-03T17:59:03;100905.00;;;12.07;66.04
48796;BME280;34607;48.520;-1.330;2023-04-03T18:01:32;100902.31;;;12.04;66.31
48796;BME280;34607;48.520;-1.330;2023-04-03T18:04:01;100899.63;;;11.98;66.66
48796;BME280;34607;48.520;-1.330;2023-04-03T18:06:31;100910.75;;;11.92;66.91
48796;BME280;34607;48.520;-1.330;2023-04-03T18:09:03;100890.56;;;11.80;67.14
48796;BME280;34607;48.520;-1.330;2023-04-03T18:11:33;100866.09;;;11.66;67.21
48796;BME280;34607;48.520;-1.330;2023-04-03T18:14:01;100892.97;;;11.70;67.66
48796;BME280;34607;48.520;-1.330;2023-04-03T18:16:29;100893.75;;;11.66;67.81
48796;BME280;34607;48.520;-1.330;2023-04-03T18:18:56;100908.56;;;11.71;67.80
48796;BME280;34607;48.520;-1.330;2023-04-03T18:21:23;100905.84;;;11.65;67.90
48796;BME280;34607;48.520;-1.330;2023-04-03T18:23:52;100911.88;;;11.64;67.92
48796;BME280;34607;48.520;-1.330;2023-04-03T18:26:21;100910.00;;;11.57;68.33
48796;BME280;34607;48.520;-1.330;2023-04-03T18:28:56;100918.56;;;11.53;68.08
48796;BME280;34607;48.520;-1.330;2023-04-03T18:31:25;100921.03;;;11.47;68.33
48796;BME280;34607;48.520;-1.330;2023-04-03T18:33:53;100913.91;;;11.36;68.67
48796;BME280;34607;48.520;-1.330;2023-04-03T18:36:24;100924.22;;;11.35;68.82
48796;BME280;34607;48.520;-1.330;2023-04-03T18:38:51;100911.78;;;11.20;68.99
48796;BME280;34607;48.520;-1.330;2023-04-03T18:41:19;100913.59;;;11.24;69.22
48796;BME280;34607;48.520;-1.330;2023-04-03T18:43:47;100908.22;;;11.15;69.15
48796;BME280;34607;48.520;-1.330;2023-04-03T18:46:16;100924.66;;;11.17;69.34
48796;BME280;34607;48.520;-1.330;2023-04-03T18:48:44;100917.59;;;11.10;69.64
48796;BME280;34607;48.520;-1.330;2023-04-03T18:51:12;100922.75;;;11.08;69.99
48796;BME280;34607;48.520;-1.330;2023-04-03T18:53:39;100911.28;;;10.98;70.02
48796;BME280;34607;48.520;-1.330;2023-04-03T18:56:07;100930.38;;;11.02;70.34
48796;BME280;34607;48.520;-1.330;2023-04-03T18:58:34;100931.09;;;10.96;70.48
48796;BME280;34607;48.520;-1.330;2023-04-03T19:01:01;100941.34;;;10.90;70.48
48796;BME280;34607;48.520;-1.330;2023-04-03T19:03:31;100940.34;;;10.85;70.63
48796;BME280;34607;48.520;-1.330;2023-04-03T19:05:59;100944.59;;;10.83;70.72
48796;BME280;34607;48.520;-1.330;2023-04-03T19:08:27;100952.13;;;10.74;71.13
48796;BME280;34607;48.520;-1.330;2023-04-03T19:10:55;100949.19;;;10.60;71.46
48796;BME280;34607;48.520;-1.330;2023-04-03T19:13:22;100954.25;;;10.55;71.60
48796;BME280;34607;48.520;-1.330;2023-04-03T19:15:49;100958.53;;;10.53;71.74
48796;BME280;34607;48.520;-1.330;2023-04-03T19:18:16;100955.03;;;10.51;71.54
48796;BME280;34607;48.520;-1.330;2023-04-03T19:20:45;100959.97;;;10.42;71.74
48796;BME280;34607;48.520;-1.330;2023-04-03T19:23:12;100958.84;;;10.32;71.84
48796;BME280;34607;48.520;-1.330;2023-04-03T19:25:39;100950.13;;;10.30;71.94
48796;BME280;34607;48.520;-1.330;2023-04-03T19:28:07;100959.50;;;10.26;72.14
48796;BME280;34607;48.520;-1.330;2023-04-03T19:30:36;100952.47;;;10.22;72.09
48796;BME280;34607;48.520;-1.330;2023-04-03T19:33:03;100956.75;;;10.20;72.16
48796;BME280;34607;48.520;-1.330;2023-04-03T19:35:30;100955.69;;;10.13;72.30
48796;BME280;34607;48.520;-1.330;2023-04-03T19:37:59;100957.28;;;10.08;72.13
48796;BME280;34607;48.520;-1.330;2023-04-03T19:40:27;100959.88;;;10.08;72.26
48796;BME280;34607;48.520;-1.330;2023-04-03T19:42:56;100957.16;;;10.04;72.25
48796;BME280;34607;48.520;-1.330;2023-04-03T19:45:24;100972.50;;;9.98;72.39
48796;BME280;34607;48.520;-1.330;2023-04-03T19:47:52;100976.63;;;9.91;72.44
48796;BME280;34607;48.520;-1.330;2023-04-03T19:50:19;100968.63;;;9.83;72.50
48796;BME280;34607;48.520;-1.330;2023-04-03T19:52:46;100972.97;;;9.84;72.20
48796;BME280;34607;48.520;-1.330;2023-04-03T19:55:15;100971.06;;;9.77;72.67
48796;BME280;34607;48.520;-1.330;2023-04-03T19:57:42;100984.75;;;9.74;72.80
48796;BME280;34607;48.520;-1.330;2023-04-03T20:00:10;100957.56;;;9.59;72.81
48796;BME280;34607;48.520;-1.330;2023-04-03T20:02:38;100978.34;;;9.62;73.19
48796;BME280;34607;48.520;-1.330;2023-04-03T20:05:06;100986.81;;;9.57;73.35
48796;BME280;34607;48.520;-1.330;2023-04-03T20:07:33;100984.06;;;9.51;73.38
48796;BME280;34607;48.520;-1.330;2023-04-03T20:10:00;100988.41;;;9.52;73.32
48796;BME280;34607;48.520;-1.330;2023-04-03T20:12:29;100986.75;;;9.54;73.22
48796;BME280;34607;48.520;-1.330;2023-04-03T20:14:56;100985.00;;;9.53;73.31
48796;BME280;34607;48.520;-1.330;2023-04-03T20:17:23;100985.00;;;9.53;73.08
48796;BME280;34607;48.520;-1.330;2023-04-03T20:19:50;100978.81;;;9.48;73.17
48796;BME280;34607;48.520;-1.330;2023-04-03T20:22:17;100987.31;;;9.44;73.26